sensor_id;sensor_type;location;lat;lon;timestamp;pressure;altitude;pressure_sealevel;temperature;humidity
51603;BME280;37954;51.980;5.850;2023-06-14T00:01:10;101190.13;;;20.26;36.08
51603;BME280;37954;51.980;5.850;2023-06-14T00:05:24;101189.31;;;20.15;36.40
51603;BME280;37954;51.980;5.850;2023-06-14T00:09:36;101197.22;;;20.16;36.29
51603;BME280;37954;51.980;5.850;2023-06-14T00:13:48;101198.03;;;20.17;36.36
51603;BME280;37954;51.980;5.850;2023-06-14T00:18:00;101197.25;;;20.06;36.60
51603;BME280;37954;51.980;5.850;2023-06-14T00:22:12;101201.34;;;20.04;36.94
51603;BME280;37954;51.980;5.850;2023-06-14T00:26:24;101202.16;;;19.99;37.09
51603;BME280;37954;51.980;5.850;2023-06-14T00:30:37;101200.78;;;19.92;37.26
51603;BME280;37954;51.980;5.850;2023-06-14T00:34:49;101190.47;;;19.84;37.37
51603;BME280;37954;51.980;5.850;2023-06-14T00:39:01;101201.09;;;19.85;37.32
51603;BME280;37954;51.980;5.850;2023-06-14T00:43:12;101195.63;;;19.75;37.73
51603;BME280;37954;51.980;5.850;2023-06-14T00:47:24;101206.53;;;19.75;37.84
51603;BME280;37954;51.980;5.850;2023-06-14T00:51:36;101198.66;;;19.68;37.99
51603;BME280;37954;51.980;5.850;2023-06-14T00:55:49;101203.28;;;19.68;37.81
51603;BME280;37954;51.980;5.850;2023-06-14T01:00:00;101206.81;;;19.58;38.62
51603;BME280;37954;51.980;5.850;2023-06-14T01:04:13;101206.00;;;19.53;38.47
51603;BME280;37954;51.980;5.850;2023-06-14T01:08:31;101212.28;;;19.53;38.79
51603;BME280;37954;51.980;5.850;2023-06-14T01:13:10;101206.75;;;19.43;38.79
51603;BME280;37954;51.980;5.850;2023-06-14T01:17:24;101210.31;;;19.43;39.08
51603;BME280;37954;51.980;5.850;2023-06-14T01:21:38;101204.03;;;19.33;39.03
51603;BME280;37954;51.980;5.850;2023-06-14T01:25:53;101204.31;;;19.31;38.80
51603;BME280;37954;51.980;5.850;2023-06-14T01:30:07;101197.47;;;19.29;38.95
51603;BME280;37954;51.980;5.850;2023-06-14T01:34:19;101202.38;;;19.27;38.96
51603;BME280;37954;51.980;5.850;2023-06-14T01:38:36;101202.09;;;19.23;39.07
51603;BME280;37954;51.980;5.850;2023-06-14T01:42:50;101209.19;;;19.19;39.21
51603;BME280;37954;51.980;5.850;2023-06-14T01:47:02;101206.72;;;19.12;39.16
51603;BME280;37954;51.980;5.850;2023-06-14T01:51:14;101204.78;;;19.08;39.37
51603;BME280;37954;51.980;5.850;2023-06-14T01:55:27;101201.25;;;19.02;39.64
51603;BME280;37954;51.980;5.850;2023-06-14T01:59:38;101200.69;;;19.00;39.95
51603;BME280;37954;51.980;5.850;2023-06-14T02:03:50;101198.50;;;18.97;39.99
51603;BME280;37954;51.980;5.850;2023-06-14T02:08:02;101202.84;;;18.93;40.04
51603;BME280;37954;51.980;5.850;2023-06-14T02:12:15;101196.84;;;18.91;39.93
51603;BME280;37954;51.980;5.850;2023-06-14T02:16:27;101195.19;;;18.85;40.06
51603;BME280;37954;51.980;5.850;2023-06-14T02:20:40;101189.72;;;18.80;40.23
51603;BME280;37954;51.980;5.850;2023-06-14T02:24:51;101192.72;;;18.78;40.36
51603;BME280;37954;51.980;5.850;2023-06-14T02:29:12;101197.31;;;18.73;40.46
51603;BME280;37954;51.980;5.850;2023-06-14T02:33:26;101198.41;;;18.72;40.79
51603;BME280;37954;51.980;5.850;2023-06-14T02:37:39;101200.00;;;18.63;40.90
51603;BME280;37954;51.980;5.850;2023-06-14T02:41:51;101203.47;;;18.58;41.20
51603;BME280;37954;51.980;5.850;2023-06-14T02:46:02;101198.56;;;18.55;40.95
51603;BME280;37954;51.980;5.850;2023-06-14T02:50:14;101199.13;;;18.52;41.15
51603;BME280;37954;51.980;5.850;2023-06-14T02:54:27;101203.97;;;18.45;41.30
51603;BME280;37954;51.980;5.850;2023-06-14T02:58:39;101218.38;;;18.46;41.51
51603;BME280;37954;51.980;5.850;2023-06-14T03:02:52;101221.84;;;18.36;41.60
51603;BME280;37954;51.980;5.850;2023-06-14T03:07:05;101218.31;;;18.30;41.88
51603;BME280;37954;51.980;5.850;2023-06-14T03:11:22;101232.47;;;18.32;41.78
51603;BME280;37954;51.980;5.850;2023-06-14T03:15:34;101216.09;;;18.27;42.04
51603;BME280;37954;51.980;5.850;2023-06-14T03:19:47;101220.69;;;18.22;41.98
51603;BME280;37954;51.980;5.850;2023-06-14T03:24:00;101228.84;;;18.17;42.33
51603;BME280;37954;51.980;5.850;2023-06-14T03:28:12;101238.88;;;18.16;42.50
51603;BME280;37954;51.980;5.850;2023-06-14T03:32:24;101232.31;;;18.12;42.51
51603;BME280;37954;51.980;5.850;2023-06-14T03:36:36;101233.34;;;18.06;42.83
51603;BME280;37954;51.980;5.850;2023-06-14T03:40:48;101254.91;;;18.13;42.80
51603;BME280;37954;51.980;5.850;2023-06-14T03:44:59;101240.69;;;18.05;43.02
51603;BME280;37954;51.980;5.850;2023-06-14T03:49:12;101248.84;;;18.05;43.02
51603;BME280;37954;51.980;5.850;2023-06-14T03:53:24;101248.84;;;18.05;43.00
51603;BME280;37954;51.980;5.850;2023-06-14T03:57:38;101248.84;;;18.05;43.02
51603;BME280;37954;51.980;5.850;2023-06-14T04:01:54;101261.69;;;18.10;43.45
51603;BME280;37954;51.980;5.850;2023-06-14T04:06:06;101261.41;;;18.12;43.26
51603;BME280;37954;51.980;5.850;2023-06-14T04:10:19;101274.81;;;18.18;43.26
51603;BME280;37954;51.980;5.850;2023-06-14T04:14:32;101272.59;;;18.15;43.50
51603;BME280;37954;51.980;5.850;2023-06-14T04:18:45;101282.81;;;18.35;43.21
51603;BME280;37954;51.980;5.850;2023-06-14T04:23:11;101290.78;;;19.71;42.04
51603;BME280;37954;51.980;5.850;2023-06-14T04:27:25;101286.66;;;20.75;40.10
51603;BME280;37954;51.980;5.850;2023-06-14T04:31:37;101291.81;;;21.85;38.27
51603;BME280;37954;51.980;5.850;2023-06-14T04:35:52;101295.72;;;22.71;36.91
51603;BME280;37954;51.980;5.850;2023-06-14T04:40:06;101286.09;;;23.40;35.61
51603;BME280;37954;51.980;5.850;2023-06-14T04:44:23;101288.91;;;24.10;34.21
51603;BME280;37954;51.980;5.850;2023-06-14T04:48:43;101303.88;;;24.50;33.24
51603;BME280;37954;51.980;5.850;2023-06-14T04:52:55;101310.75;;;24.94;32.55
51603;BME280;37954;51.980;5.850;2023-06-14T04:57:09;101309.63;;;25.22;31.89
51603;BME280;37954;51.980;5.850;2023-06-14T05:01:26;101311.00;;;25.47;31.23
51603;BME280;37954;51.980;5.850;2023-06-14T05:05:39;101313.91;;;25.78;30.68
51603;BME280;37954;51.980;5.850;2023-06-14T05:09:52;101308.53;;;25.95;30.55
51603;BME280;37954;51.980;5.850;2023-06-14T05:14:05;101314.41;;;26.25;30.04
51603;BME280;37954;51.980;5.850;2023-06-14T05:18:20;101320.31;;;26.32;29.58
51603;BME280;37954;51.980;5.850;2023-06-14T05:22:32;101320.84;;;26.43;29.37
51603;BME280;37954;51.980;5.850;2023-06-14T05:26:44;101326.16;;;26.70;29.28
51603;BME280;37954;51.980;5.850;2023-06-14T05:30:56;101333.97;;;26.99;28.71
51603;BME280;37954;51.980;5.850;2023-06-14T05:35:09;101323.13;;;27.11;28.55
51603;BME280;37954;51.980;5.850;2023-06-14T05:39:22;101336.53;;;27.52;28.47
51603;BME280;37954;51.980;5.850;2023-06-14T05:43:35;101340.28;;;27.65;27.65
51603;BME280;37954;51.980;5.850;2023-06-14T05:47:47;101345.31;;;28.06;27.13
51603;BME280;37954;51.980;5.850;2023-06-14T05:51:59;101333.78;;;28.13;26.89
51603;BME280;37954;51.980;5.850;2023-06-14T05:56:11;101342.38;;;28.11;26.85
51603;BME280;37954;51.980;5.850;2023-06-14T06:00:22;101358.41;;;28.69;26.57
51603;BME280;37954;51.980;5.850;2023-06-14T06:04:34;101352.38;;;28.67;26.28
51603;BME280;37954;51.980;5.850;2023-06-14T06:08:46;101361.22;;;29.07;26.05
51603;BME280;37954;51.980;5.850;2023-06-14T06:12:58;101378.25;;;29.48;25.63
51603;BME280;37954;51.980;5.850;2023-06-14T06:17:09;101366.13;;;29.82;25.50
51603;BME280;37954;51.980;5.850;2023-06-14T06:21:21;101373.31;;;30.03;25.19
51603;BME280;37954;51.980;5.850;2023-06-14T06:25:33;101381.16;;;30.55;24.75
51603;BME280;37954;51.980;5.850;2023-06-14T06:29:45;101384.66;;;30.76;24.37
51603;BME280;37954;51.980;5.850;2023-06-14T06:33:56;101373.56;;;30.76;24.33
51603;BME280;37954;51.980;5.850;2023-06-14T06:38:08;101390.94;;;30.98;24.10
51603;BME280;37954;51.980;5.850;2023-06-14T06:42:21;101392.84;;;31.30;24.09
51603;BME280;37954;51.980;5.850;2023-06-14T06:46:35;101396.44;;;31.31;23.07
51603;BME280;37954;51.980;5.850;2023-06-14T06:50:51;101385.91;;;31.12;23.44
51603;BME280;37954;51.980;5.850;2023-06-14T06:55:03;101412.81;;;31.60;23.02
51603;BME280;37954;51.980;5.850;2023-06-14T06:59:15;101411.56;;;31.21;23.07
51603;BME280;37954;51.980;5.850;2023-06-14T07:03:28;101411.69;;;31.12;23.21
51603;BME280;37954;51.980;5.850;2023-06-14T07:07:40;101418.59;;;31.06;22.93
51603;BME280;37954;51.980;5.850;2023-06-14T07:11:52;101422.38;;;31.02;23.30
51603;BME280;37954;51.980;5.850;2023-06-14T07:16:04;101429.84;;;31.22;23.14
51603;BME280;37954;51.980;5.850;2023-06-14T07:20:16;101432.34;;;31.03;23.04
51603;BME280;37954;51.980;5.850;2023-06-14T07:24:28;101430.16;;;31.08;23.46
51603;BME280;37954;51.980;5.850;2023-06-14T07:28:40;101434.50;;;31.30;22.63
51603;BME280;37954;51.980;5.850;2023-06-14T07:32:53;101428.34;;;31.73;23.05
51603;BME280;37954;51.980;5.850;2023-06-14T07:37:05;101441.09;;;32.27;22.31
51603;BME280;37954;51.980;5.850;2023-06-14T07:41:16;101439.25;;;32.74;21.92
51603;BME280;37954;51.980;5.850;2023-06-14T07:45:28;101446.47;;;32.91;21.52
51603;BME280;37954;51.980;5.850;2023-06-14T07:49:40;101432.22;;;33.40;20.94
51603;BME280;37954;51.980;5.850;2023-06-14T07:53:52;101447.75;;;33.25;20.72
51603;BME280;37954;51.980;5.850;2023-06-14T07:58:04;101433.28;;;33.04;20.56
51603;BME280;37954;51.980;5.850;2023-06-14T08:02:16;101444.78;;;33.02;20.29
51603;BME280;37954;51.980;5.850;2023-06-14T08:06:28;101452.47;;;32.77;20.33
51603;BME280;37954;51.980;5.850;2023-06-14T08:10:39;101444.72;;;32.43;20.38
51603;BME280;37954;51.980;5.850;2023-06-14T08:14:51;101438.97;;;32.36;20.56
51603;BME280;37954;51.980;5.850;2023-06-14T08:19:23;101423.50;;;32.50;20.54
51603;BME280;37954;51.980;5.850;2023-06-14T08:23:34;101438.31;;;33.14;19.87
51603;BME280;37954;51.980;5.850;2023-06-14T08:27:47;101440.31;;;33.29;20.00
51603;BME280;37954;51.980;5.850;2023-06-14T08:31:59;101442.16;;;33.57;19.40
51603;BME280;37954;51.980;5.850;2023-06-14T08:36:11;101437.69;;;33.52;19.21
51603;BME280;37954;51.980;5.850;2023-06-14T08:40:24;101441.13;;;33.80;18.83
51603;BME280;37954;51.980;5.850;2023-06-14T08:44:36;101450.19;;;33.93;18.59
51603;BME280;37954;51.980;5.850;2023-06-14T08:48:49;101453.16;;;34.19;19.15
51603;BME280;37954;51.980;5.850;2023-06-14T08:53:02;101448.13;;;34.67;18.56
51603;BME280;37954;51.980;5.850;2023-06-14T08:57:16;101447.06;;;34.52;18.93
51603;BME280;37954;51.980;5.850;2023-06-14T09:01:28;101435.66;;;34.80;18.21
51603;BME280;37954;51.980;5.850;2023-06-14T09:05:40;101440.19;;;34.69;17.83
51603;BME280;37954;51.980;5.850;2023-06-14T09:10:07;101446.41;;;34.40;18.22
51603;BME280;37954;51.980;5.850;2023-06-14T09:14:19;101444.13;;;34.26;18.32
51603;BME280;37954;51.980;5.850;2023-06-14T09:22:53;101455.50;;;34.56;18.03
51603;BME280;37954;51.980;5.850;2023-06-14T09:27:05;101443.13;;;34.96;17.77
51603;BME280;37954;51.980;5.850;2023-06-14T09:31:19;101454.31;;;34.99;17.68
51603;BME280;37954;51.980;5.850;2023-06-14T09:35:32;101456.91;;;35.31;17.59
51603;BME280;37954;51.980;5.850;2023-06-14T09:39:50;101454.50;;;35.55;17.63
51603;BME280;37954;51.980;5.850;2023-06-14T09:44:07;101451.38;;;35.11;17.80
51603;BME280;37954;51.980;5.850;2023-06-14T09:48:27;101451.50;;;34.76;18.08
51603;BME280;37954;51.980;5.850;2023-06-14T09:52:42;101450.38;;;34.58;18.18
51603;BME280;37954;51.980;5.850;2023-06-14T09:56:55;101445.56;;;35.01;17.25
51603;BME280;37954;51.980;5.850;2023-06-14T10:01:08;101445.34;;;35.09;17.31
51603;BME280;37954;51.980;5.850;2023-06-14T10:05:21;101456.19;;;34.92;17.40
51603;BME280;37954;51.980;5.850;2023-06-14T10:09:35;101432.56;;;34.66;17.51
51603;BME280;37954;51.980;5.850;2023-06-14T10:13:48;101441.53;;;34.75;17.61
51603;BME280;37954;51.980;5.850;2023-06-14T10:18:08;101431.00;;;34.69;17.80
51603;BME280;37954;51.980;5.850;2023-06-14T10:22:32;101432.19;;;35.10;17.78
51603;BME280;37954;51.980;5.850;2023-06-14T10:26:53;101438.31;;;35.19;17.45
51603;BME280;37954;51.980;5.850;2023-06-14T10:31:10;101432.50;;;34.63;17.73
51603;BME280;37954;51.980;5.850;2023-06-14T10:35:22;101435.69;;;34.61;17.54
51603;BME280;37954;51.980;5.850;2023-06-14T10:39:44;101424.44;;;34.19;18.15
51603;BME280;37954;51.980;5.850;2023-06-14T10:48:32;101432.81;;;34.19;18.16
51603;BME280;37954;51.980;5.850;2023-06-14T10:52:43;101429.13;;;34.15;18.73
51603;BME280;37954;51.980;5.850;2023-06-14T10:56:58;101440.25;;;34.11;18.18
51603;BME280;37954;51.980;5.850;2023-06-14T11:01:10;101429.13;;;34.15;18.26
51603;BME280;37954;51.980;5.850;2023-06-14T11:05:25;101425.75;;;33.36;18.40
51603;BME280;37954;51.980;5.850;2023-06-14T11:10:00;101432.84;;;33.33;18.33
51603;BME280;37954;51.980;5.850;2023-06-14T11:14:16;101428.88;;;33.03;18.36
51603;BME280;37954;51.980;5.850;2023-06-14T11:18:29;101429.22;;;33.17;18.28
51603;BME280;37954;51.980;5.850;2023-06-14T11:22:44;101432.38;;;33.15;18.71
51603;BME280;37954;51.980;5.850;2023-06-14T11:26:56;101428.06;;;33.02;19.03
51603;BME280;37954;51.980;5.850;2023-06-14T11:31:09;101443.59;;;32.88;18.65
51603;BME280;37954;51.980;5.850;2023-06-14T11:35:25;101433.88;;;32.38;19.11
51603;BME280;37954;51.980;5.850;2023-06-14T11:39:43;101425.72;;;32.45;19.04
51603;BME280;37954;51.980;5.850;2023-06-14T11:43:55;101434.50;;;32.47;19.05
51603;BME280;37954;51.980;5.850;2023-06-14T11:48:07;101424.41;;;32.27;19.49
51603;BME280;37954;51.980;5.850;2023-06-14T11:52:19;101432.41;;;32.16;19.82
51603;BME280;37954;51.980;5.850;2023-06-14T11:56:31;101431.69;;;32.31;20.07
51603;BME280;37954;51.980;5.850;2023-06-14T12:00:43;101425.03;;;32.20;20.26
51603;BME280;37954;51.980;5.850;2023-06-14T12:04:55;101444.88;;;31.94;20.20
51603;BME280;37954;51.980;5.850;2023-06-14T12:09:08;101442.69;;;31.27;20.90
51603;BME280;37954;51.980;5.850;2023-06-14T12:13:26;101426.19;;;30.85;21.18
51603;BME280;37954;51.980;5.850;2023-06-14T12:17:39;101438.59;;;30.55;21.58
51603;BME280;37954;51.980;5.850;2023-06-14T12:21:54;101425.97;;;30.24;21.70
51603;BME280;37954;51.980;5.850;2023-06-14T12:26:05;101426.16;;;29.98;21.79
51603;BME280;37954;51.980;5.850;2023-06-14T12:30:19;101428.44;;;29.75;22.44
51603;BME280;37954;51.980;5.850;2023-06-14T12:34:31;101427.16;;;29.94;22.55
51603;BME280;37954;51.980;5.850;2023-06-14T12:38:43;101431.47;;;29.83;22.96
51603;BME280;37954;51.980;5.850;2023-06-14T12:42:55;101441.38;;;29.63;23.28
51603;BME280;37954;51.980;5.850;2023-06-14T12:47:07;101417.50;;;29.50;23.16
51603;BME280;37954;51.980;5.850;2023-06-14T12:51:19;101433.03;;;29.42;23.58
51603;BME280;37954;51.980;5.850;2023-06-14T12:55:31;101426.69;;;29.33;23.53
51603;BME280;37954;51.980;5.850;2023-06-14T12:59:43;101444.34;;;29.11;23.98
51603;BME280;37954;51.980;5.850;2023-06-14T13:03:55;101449.81;;;28.82;24.16
51603;BME280;37954;51.980;5.850;2023-06-14T13:08:07;101430.59;;;28.76;24.36
51603;BME280;37954;51.980;5.850;2023-06-14T13:12:22;101427.03;;;28.85;24.57
51603;BME280;37954;51.980;5.850;2023-06-14T13:16:34;101433.72;;;28.84;25.02
51603;BME280;37954;51.980;5.850;2023-06-14T13:20:47;101437.31;;;28.67;24.76
51603;BME280;37954;51.980;5.850;2023-06-14T13:24:59;101422.53;;;28.54;24.68
51603;BME280;37954;51.980;5.850;2023-06-14T13:29:11;101439.59;;;28.65;24.56
51603;BME280;37954;51.980;5.850;2023-06-14T13:33:23;101443.53;;;28.38;24.44
51603;BME280;37954;51.980;5.850;2023-06-14T13:37:36;101420.91;;;28.19;24.68
51603;BME280;37954;51.980;5.850;2023-06-14T13:41:47;101429.06;;;28.32;24.98
51603;BME280;37954;51.980;5.850;2023-06-14T13:45:59;101421.22;;;28.43;24.39
51603;BME280;37954;51.980;5.850;2023-06-14T13:50:11;101426.63;;;28.39;24.24
51603;BME280;37954;51.980;5.850;2023-06-14T13:54:22;101427.41;;;28.40;24.56
51603;BME280;37954;51.980;5.850;2023-06-14T13:58:34;101408.53;;;28.42;24.87
51603;BME280;37954;51.980;5.850;2023-06-14T14:02:46;101426.44;;;28.45;24.67
51603;BME280;37954;51.980;5.850;2023-06-14T14:06:58;101411.81;;;28.18;24.11
51603;BME280;37954;51.980;5.850;2023-06-14T14:11:09;101414.88;;;28.17;24.63
51603;BME280;37954;51.980;5.850;2023-06-14T14:15:21;101419.91;;;28.06;25.13
51603;BME280;37954;51.980;5.850;2023-06-14T14:19:33;101415.03;;;27.94;25.15
51603;BME280;37954;51.980;5.850;2023-06-14T14:23:45;101410.66;;;28.02;25.09
51603;BME280;37954;51.980;5.850;2023-06-14T14:27:57;101409.66;;;27.89;25.60
51603;BME280;37954;51.980;5.850;2023-06-14T14:32:09;101404.13;;;27.72;25.51
51603;BME280;37954;51.980;5.850;2023-06-14T14:36:25;101411.19;;;27.56;25.05
51603;BME280;37954;51.980;5.850;2023-06-14T14:40:36;101417.72;;;27.51;24.73
51603;BME280;37954;51.980;5.850;2023-06-14T14:44:48;101414.41;;;27.41;25.01
51603;BME280;37954;51.980;5.850;2023-06-14T14:49:00;101399.81;;;27.40;25.44
51603;BME280;37954;51.980;5.850;2023-06-14T14:53:12;101408.44;;;27.47;25.12
51603;BME280;37954;51.980;5.850;2023-06-14T14:57:24;101404.72;;;27.52;25.20
51603;BME280;37954;51.980;5.850;2023-06-14T15:01:36;101402.44;;;27.54;25.65
51603;BME280;37954;51.980;5.850;2023-06-14T15:05:48;101393.69;;;27.52;25.81
51603;BME280;37954;51.980;5.850;2023-06-14T15:10:00;101407.44;;;27.34;25.98
51603;BME280;37954;51.980;5.850;2023-06-14T15:14:12;101407.28;;;27.39;25.41
51603;BME280;37954;51.980;5.850;2023-06-14T15:18:23;101392.91;;;27.20;25.48
51603;BME280;37954;51.980;5.850;2023-06-14T15:22:35;101395.34;;;27.22;25.89
51603;BME280;37954;51.980;5.850;2023-06-14T15:26:47;101420.91;;;27.36;25.73
51603;BME280;37954;51.980;5.850;2023-06-14T15:30:59;101410.44;;;27.16;26.05
51603;BME280;37954;51.980;5.850;2023-06-14T15:35:12;101405.34;;;27.00;26.26
51603;BME280;37954;51.980;5.850;2023-06-14T15:39:23;101420.00;;;27.10;26.42
51603;BME280;37954;51.980;5.850;2023-06-14T15:43:37;101405.69;;;26.99;26.81
51603;BME280;37954;51.980;5.850;2023-06-14T15:47:49;101402.19;;;26.93;27.05
51603;BME280;37954;51.980;5.850;2023-06-14T15:52:00;101407.47;;;27.03;27.08
51603;BME280;37954;51.980;5.850;2023-06-14T15:56:12;101413.22;;;27.16;26.87
51603;BME280;37954;51.980;5.850;2023-06-14T16:00:24;101397.81;;;27.23;27.01
51603;BME280;37954;51.980;5.850;2023-06-14T16:04:37;101401.88;;;27.26;27.20
51603;BME280;37954;51.980;5.850;2023-06-14T16:08:49;101397.56;;;27.02;27.02
51603;BME280;37954;51.980;5.850;2023-06-14T16:13:01;101409.66;;;26.93;26.75
51603;BME280;37954;51.980;5.850;2023-06-14T16:17:13;101392.91;;;26.81;26.61
51603;BME280;37954;51.980;5.850;2023-06-14T16:21:25;101399.66;;;26.75;27.01
51603;BME280;37954;51.980;5.850;2023-06-14T16:25:37;101404.25;;;26.57;27.33
51603;BME280;37954;51.980;5.850;2023-06-14T16:29:49;101405.84;;;26.49;27.10
51603;BME280;37954;51.980;5.850;2023-06-14T16:34:01;101405.78;;;26.41;26.94
51603;BME280;37954;51.980;5.850;2023-06-14T16:38:14;101397.13;;;26.33;26.74
51603;BME280;37954;51.980;5.850;2023-06-14T16:42:25;101404.56;;;26.33;27.45
51603;BME280;37954;51.980;5.850;2023-06-14T16:46:37;101402.00;;;26.37;27.81
51603;BME280;37954;51.980;5.850;2023-06-14T16:50:50;101408.38;;;26.23;27.76
51603;BME280;37954;51.980;5.850;2023-06-14T16:55:02;101406.34;;;26.15;28.37
51603;BME280;37954;51.980;5.850;2023-06-14T16:59:14;101407.97;;;26.16;28.26
51603;BME280;37954;51.980;5.850;2023-06-14T17:03:26;101413.00;;;26.14;28.28
51603;BME280;37954;51.980;5.850;2023-06-14T17:07:39;101417.56;;;25.96;28.35
51603;BME280;37954;51.980;5.850;2023-06-14T17:11:51;101425.25;;;26.08;28.23
51603;BME280;37954;51.980;5.850;2023-06-14T17:16:03;101411.34;;;25.91;28.26
51603;BME280;37954;51.980;5.850;2023-06-14T17:20:16;101426.28;;;25.98;28.59
51603;BME280;37954;51.980;5.850;2023-06-14T17:24:29;101425.31;;;25.94;28.70
51603;BME280;37954;51.980;5.850;2023-06-14T17:28:40;101423.47;;;25.90;28.96
51603;BME280;37954;51.980;5.850;2023-06-14T17:32:52;101427.47;;;25.84;29.20
51603;BME280;37954;51.980;5.850;2023-06-14T17:37:04;101424.31;;;25.77;29.49
51603;BME280;37954;51.980;5.850;2023-06-14T17:41:17;101439.50;;;25.74;29.74
51603;BME280;37954;51.980;5.850;2023-06-14T17:45:29;101436.03;;;25.69;29.47
51603;BME280;37954;51.980;5.850;2023-06-14T17:49:41;101432.38;;;25.59;29.62
51603;BME280;37954;51.980;5.850;2023-06-14T17:53:52;101437.75;;;25.51;29.99
51603;BME280;37954;51.980;5.850;2023-06-14T17:58:04;101423.63;;;25.44;30.37
51603;BME280;37954;51.980;5.850;2023-06-14T18:02:16;101433.81;;;25.43;30.52
51603;BME280;37954;51.980;5.850;2023-06-14T18:06:29;101439.91;;;25.40;30.69
51603;BME280;37954;51.980;5.850;2023-06-14T18:10:41;101443.88;;;25.34;31.05
51603;BME280;37954;51.980;5.850;2023-06-14T18:14:53;101438.28;;;25.25;31.21
51603;BME280;37954;51.980;5.850;2023-06-14T18:19:05;101444.91;;;25.24;31.54
51603;BME280;37954;51.980;5.850;2023-06-14T18:23:16;101449.97;;;25.17;31.77
51603;BME280;37954;51.980;5.850;2023-06-14T18:27:28;101450.69;;;25.09;31.67
51603;BME280;37954;51.980;5.850;2023-06-14T18:31:40;101453.03;;;25.02;31.79
51603;BME280;37954;51.980;5.850;2023-06-14T18:35:52;101459.72;;;24.96;31.81
51603;BME280;37954;51.980;5.850;2023-06-14T18:40:04;101455.19;;;24.86;32.23
51603;BME280;37954;51.980;5.850;2023-06-14T18:44:16;101462.09;;;24.84;32.38
51603;BME280;37954;51.980;5.850;2023-06-14T18:48:28;101464.94;;;24.79;32.55
51603;BME280;37954;51.980;5.850;2023-06-14T18:52:39;101473.81;;;24.76;32.55
51603;BME280;37954;51.980;5.850;2023-06-14T18:56:51;101463.25;;;24.64;32.61
51603;BME280;37954;51.980;5.850;2023-06-14T19:01:03;101472.22;;;24.56;32.82
51603;BME280;37954;51.980;5.850;2023-06-14T19:05:15;101474.72;;;24.52;32.84
51603;BME280;37954;51.980;5.850;2023-06-14T19:09:27;101471.97;;;24.52;32.92
51603;BME280;37954;51.980;5.850;2023-06-14T19:13:39;101464.41;;;24.44;32.96
51603;BME280;37954;51.980;5.850;2023-06-14T19:18:00;101473.84;;;24.38;33.19
51603;BME280;37954;51.980;5.850;2023-06-14T19:22:18;101475.31;;;24.31;33.46
51603;BME280;37954;51.980;5.850;2023-06-14T19:26:29;101485.25;;;24.26;33.53
51603;BME280;37954;51.980;5.850;2023-06-14T19:30:42;101478.28;;;24.15;33.78
51603;BME280;37954;51.980;5.850;2023-06-14T19:34:56;101479.59;;;23.99;34.47
51603;BME280;37954;51.980;5.850;2023-06-14T19:39:11;101493.09;;;23.95;34.46
51603;BME280;37954;51.980;5.850;2023-06-14T19:43:23;101494.03;;;23.86;34.67
51603;BME280;37954;51.980;5.850;2023-06-14T19:47:35;101498.25;;;23.78;34.83
51603;BME280;37954;51.980;5.850;2023-06-14T19:51:47;101504.16;;;23.67;34.97
51603;BME280;37954;51.980;5.850;2023-06-14T19:55:58;101514.59;;;23.65;35.35
51603;BME280;37954;51.980;5.850;2023-06-14T20:00:11;101512.81;;;23.55;35.61
51603;BME280;37954;51.980;5.850;2023-06-14T20:04:24;101522.16;;;23.49;36.01
51603;BME280;37954;51.980;5.850;2023-06-14T20:08:36;101516.00;;;23.33;36.27
51603;BME280;37954;51.980;5.850;2023-06-14T20:12:48;101519.09;;;23.26;36.60
51603;BME280;37954;51.980;5.850;2023-06-14T20:16:59;101517.56;;;23.15;36.56
51603;BME280;37954;51.980;5.850;2023-06-14T20:21:11;101519.84;;;23.03;36.88
51603;BME280;37954;51.980;5.850;2023-06-14T20:25:23;101526.50;;;22.97;36.89
51603;BME280;37954;51.980;5.850;2023-06-14T20:29:35;101525.44;;;22.88;37.20
51603;BME280;37954;51.980;5.850;2023-06-14T20:33:47;101532.91;;;22.82;37.21
51603;BME280;37954;51.980;5.850;2023-06-14T20:38:04;101529.38;;;22.72;37.43
51603;BME280;37954;51.980;5.850;2023-06-14T20:42:16;101539.53;;;22.71;37.46
51603;BME280;37954;51.980;5.850;2023-06-14T20:46:40;101534.13;;;22.61;37.50
51603;BME280;37954;51.980;5.850;2023-06-14T20:50:56;101541.28;;;22.52;37.62
51603;BME280;37954;51.980;5.850;2023-06-14T20:55:08;101530.94;;;22.44;37.78
51603;BME280;37954;51.980;5.850;2023-06-14T20:59:19;101547.13;;;22.40;38.00
51603;BME280;37954;51.980;5.850;2023-06-14T21:03:31;101532.69;;;22.30;38.07
51603;BME280;37954;51.980;5.850;2023-06-14T21:07:43;101540.91;;;22.25;38.14
51603;BME280;37954;51.980;5.850;2023-06-14T21:12:20;101549.97;;;22.20;38.58
51603;BME280;37954;51.980;5.850;2023-06-14T21:16:32;101534.72;;;22.04;38.51
51603;BME280;37954;51.980;5.850;2023-06-14T21:20:44;101546.47;;;21.99;38.54
51603;BME280;37954;51.980;5.850;2023-06-14T21:24:56;101538.28;;;21.94;38.79
51603;BME280;37954;51.980;5.850;2023-06-14T21:29:08;101551.16;;;21.94;38.70
51603;BME280;37954;51.980;5.850;2023-06-14T21:33:19;101547.34;;;21.84;38.80
51603;BME280;37954;51.980;5.850;2023-06-14T21:37:31;101544.91;;;21.78;38.87
51603;BME280;37954;51.980;5.850;2023-06-14T21:41:43;101554.78;;;21.74;39.20
51603;BME280;37954;51.980;5.850;2023-06-14T21:45:55;101551.78;;;21.65;39.13
51603;BME280;37954;51.980;5.850;2023-06-14T21:50:07;101557.25;;;21.65;39.13
51603;BME280;37954;51.980;5.850;2023-06-14T21:54:19;101549.06;;;21.55;39.32
51603;BME280;37954;51.980;5.850;2023-06-14T21:58:30;101558.09;;;21.56;39.33
51603;BME280;37954;51.980;5.850;2023-06-14T22:02:42;101561.66;;;21.51;39.36
51603;BME280;37954;51.980;5.850;2023-06-14T22:06:54;101552.38;;;21.42;39.65
51603;BME280;37954;51.980;5.850;2023-06-14T22:11:08;101555.66;;;21.39;39.59